• Join FlightAware (Why Join?)
  • Login
  • US Flag 
11:10AM EDT


 

Airport Tracker/Info


-or-


 

Live Flight TrackerFlight Track Log ✈ KAP46 ✈ 21-Jun-2013 ✈ KMSS - KALB

Flight Track Log - Related Links

Times and Time Zones

All times are in EDT time to prevent confusion due to time zone crossing. See the KAP46 flight status page for this flight to view local times or setup timezone preferences in your user account.

Time Position Orientation Groundspeed Altitude Reporting Facility
EDT Latitude Longitude Course Direction KTS MPH feet Rate Location/Type
05:18PM 44.6422 -74.6486 161° South 135 155 6,800  Level Boston Center
05:19PM 44.6050 -74.6356 166° South 141 162 7,300 300 Climbing Boston Center
05:20PM 44.5681 -74.6108 155° Southeast 146 168 7,500 120 Climbing Boston Center
05:21PM 44.5144 -74.5828 160° South 158 182 7,600  Climbing Boston Center
05:22PM 44.4689 -74.5636 163° South 170 196 7,600  Level Boston Center
05:23PM 44.4233 -74.5506 168° South 170 196 7,600  Level Boston Center
05:24PM 44.7032 -74.7300 161° South  Level Estimated
05:24PM 44.3797 -74.5403 170° South 170 196 7,700  Level Boston Center
05:25PM 44.3342 -74.5211 163° South 164 189 7,500  Descending Boston Center
05:26PM 44.2950 -74.4994 158° South 164 189 7,800  Climbing Boston Center
05:27PM 44.2517 -74.4719 156° South 164 189 7,600 -120 Descending Boston Center
05:28PM 44.2083 -74.4531 163° South 169 194 7,600  Level Boston Center
05:29PM 44.1650 -74.4314 160° South 164 189 7,600 -60 Level Boston Center
05:30PM 44.1214 -74.4094 160° South 164 189 7,500 -60 Descending Boston Center
05:31PM 44.0781 -74.3967 168° South 164 189 7,500  Level Boston Center
05:32PM 44.0367 -74.3750 159° South 164 189 7,600  Climbing Boston Center
05:33PM 43.9933 -74.3506 158° South 164 189 7,600 -60 Level Boston Center
05:34PM 43.9500 -74.3289 160° South 164 189 7,500 -60 Descending Boston Center
05:35PM 43.9064 -74.3103 163° South 164 189 7,500  Level Boston Center
05:36PM 43.8631 -74.2858 158° South 164 189 7,500  Level Boston Center
05:37PM 43.8175 -74.2700 166° South 164 189 7,500  Level Boston Center
05:38PM 43.7742 -74.2517 163° South 164 189 7,600  Climbing Boston Center
05:39PM 43.7308 -74.2214 153° Southeast 164 189 7,600 -60 Level Boston Center
05:40PM 43.6892 -74.2058 165° South 169 194 7,500 -60 Descending Boston Center
05:41PM 43.6414 -74.1989 174° South 169 194 7,500  Level Boston Center
05:42PM 43.5958 -74.1947 176° South 164 189 7,500 -60 Level Boston Center
05:43PM 43.5503 -74.1731 161° South 164 189 7,400  Descending Boston Center
05:44PM 43.5069 -74.1433 154° Southeast 164 189 7,500 60 Climbing Boston Center
05:45PM 43.4656 -74.1164 155° Southeast 169 194 7,600  Climbing Boston Center
05:46PM 43.4158 -74.0894 159° South 169 194 7,500 -60 Descending Boston Center
05:47PM 43.3744 -74.0767 167° South 169 194 7,500 -300 Level Boston Center
05:48PM 43.3206 -74.0525 162° South 169 194 7,000 -420 Descending Boston Center
05:49PM 43.2772 -74.0258 156° South 181 208 6,700 -420 Descending Boston Center
05:50PM 43.2253 -74.0044 163° South 186 214 6,200 -540 Descending Boston Center
05:51PM 43.1797 -73.9861 164° South 186 214 5,700 -480 Descending Boston Center
05:52PM 43.1281 -73.9678 165° South 181 208 5,300 -540 Descending Boston Center
05:53PM 43.0947 -73.9583 168° South 185 213 4,800 -600 Descending Boston Center
05:54PM 43.0367 -73.9369 165° South 189 217 4,300 -480 Descending Boston Center
05:55PM 42.9869 -73.9161 163° South 182 209 3,800 -420 Descending Boston Center
05:56PM 42.9433 -73.8981 163° South 179 206 3,600 -180 Descending Boston Center
05:57PM 42.8975 -73.8939 176° South 164 189 3,500 -120 Descending Boston Center
05:58PM 42.8539 -73.8958 182° South 161 185 3,400 -120 Descending Boston Center
05:59PM 42.8139 -73.9203 204° Southwest 158 182 3,300 -180 Descending Boston Center
06:00PM 42.7719 -73.9364 196° South 177 204 3,100 -360 Descending Boston Center
06:01PM 42.7264 -73.9211 166° South 168 193 2,700 -420 Descending Boston Center
06:02PM 42.6869 -73.8947 154° Southeast 149 171 2,300 -360 Descending Boston Center
06:03PM 42.6564 -73.8544 136° Southeast 150 173 2,000 -300 Descending Boston Center
06:04PM 42.6694 -73.8067 70° East 150 173 1,700 -600 Descending Boston Center
06:05PM 42.7111 -73.8078 359° North 141 162 900 -840 Descending Boston Center
06:07PM 42.7491 -73.8020 14° North  Level Estimated
06:14PM 42.7491 -73.8020 170° South  Level Estimated
06:15PM 42.7491 -73.8020 170° South  Level Estimated
06:16PM 42.7491 -73.8020 170° South  Level Estimated